sensor_id;sensor_type;location;lat;lon;timestamp;P1;durP1;ratioP1;P2;durP2;ratioP2
40373;SDS011;26079;45.958;12.492;2023-05-02T00:01:39;4.70;;;4.40;;
40373;SDS011;26079;45.958;12.492;2023-05-02T00:04:05;5.25;;;4.85;;
40373;SDS011;26079;45.958;12.492;2023-05-02T00:06:31;5.05;;;4.75;;
40373;SDS011;26079;45.958;12.492;2023-05-02T00:08:56;4.65;;;4.32;;
40373;SDS011;26079;45.958;12.492;2023-05-02T00:11:22;5.30;;;4.53;;
40373;SDS011;26079;45.958;12.492;2023-05-02T00:13:48;5.07;;;4.68;;
40373;SDS011;26079;45.958;12.492;2023-05-02T00:16:14;5.05;;;4.65;;
40373;SDS011;26079;45.958;12.492;2023-05-02T00:18:40;4.93;;;4.53;;
40373;SDS011;26079;45.958;12.492;2023-05-02T00:21:05;5.25;;;4.85;;
40373;SDS011;26079;45.958;12.492;2023-05-02T00:23:33;4.80;;;4.47;;
40373;SDS011;26079;45.958;12.492;2023-05-02T00:25:59;6.75;;;4.72;;
40373;SDS011;26079;45.958;12.492;2023-05-02T00:28:24;6.40;;;4.13;;
40373;SDS011;26079;45.958;12.492;2023-05-02T00:30:51;5.25;;;4.93;;
40373;SDS011;26079;45.958;12.492;2023-05-02T00:33:17;4.72;;;4.43;;
40373;SDS011;26079;45.958;12.492;2023-05-02T00:35:43;4.43;;;4.13;;
40373;SDS011;26079;45.958;12.492;2023-05-02T00:38:08;4.80;;;4.45;;
40373;SDS011;26079;45.958;12.492;2023-05-02T00:43:10;4.78;;;4.45;;
40373;SDS011;26079;45.958;12.492;2023-05-02T00:45:36;5.20;;;4.80;;
40373;SDS011;26079;45.958;12.492;2023-05-02T00:48:05;4.30;;;4.00;;
40373;SDS011;26079;45.958;12.492;2023-05-02T00:50:32;5.32;;;4.97;;
40373;SDS011;26079;45.958;12.492;2023-05-02T00:53:01;4.88;;;4.57;;
40373;SDS011;26079;45.958;12.492;2023-05-02T00:55:28;4.75;;;3.63;;
40373;SDS011;26079;45.958;12.492;2023-05-02T00:57:55;4.35;;;4.07;;
40373;SDS011;26079;45.958;12.492;2023-05-02T01:00:22;4.55;;;4.15;;
40373;SDS011;26079;45.958;12.492;2023-05-02T01:03:00;4.25;;;3.95;;
40373;SDS011;26079;45.958;12.492;2023-05-02T01:05:43;3.75;;;3.45;;
40373;SDS011;26079;45.958;12.492;2023-05-02T01:11:15;4.13;;;3.83;;
40373;SDS011;26079;45.958;12.492;2023-05-02T01:13:59;4.03;;;3.72;;
40373;SDS011;26079;45.958;12.492;2023-05-02T01:16:29;7.97;;;5.28;;
40373;SDS011;26079;45.958;12.492;2023-05-02T01:18:56;5.75;;;5.00;;
40373;SDS011;26079;45.958;12.492;2023-05-02T01:21:25;5.18;;;4.63;;
40373;SDS011;26079;45.958;12.492;2023-05-02T01:24:06;6.38;;;6.03;;
40373;SDS011;26079;45.958;12.492;2023-05-02T01:29:06;5.43;;;4.97;;
40373;SDS011;26079;45.958;12.492;2023-05-02T01:31:37;5.45;;;5.07;;
40373;SDS011;26079;45.958;12.492;2023-05-02T01:34:07;4.68;;;4.38;;
40373;SDS011;26079;45.958;12.492;2023-05-02T01:36:34;4.82;;;4.50;;
40373;SDS011;26079;45.958;12.492;2023-05-02T01:39:01;4.80;;;4.50;;
40373;SDS011;26079;45.958;12.492;2023-05-02T01:41:30;5.22;;;4.82;;
40373;SDS011;26079;45.958;12.492;2023-05-02T01:43:57;5.00;;;4.70;;
40373;SDS011;26079;45.958;12.492;2023-05-02T01:46:25;6.15;;;5.65;;
40373;SDS011;26079;45.958;12.492;2023-05-02T01:48:52;6.30;;;5.80;;
40373;SDS011;26079;45.958;12.492;2023-05-02T01:51:20;5.20;;;4.88;;
40373;SDS011;26079;45.958;12.492;2023-05-02T01:53:47;4.72;;;4.38;;
40373;SDS011;26079;45.958;12.492;2023-05-02T01:56:15;4.72;;;4.38;;
40373;SDS011;26079;45.958;12.492;2023-05-02T01:58:43;5.18;;;4.85;;
40373;SDS011;26079;45.958;12.492;2023-05-02T02:01:11;5.43;;;5.10;;
40373;SDS011;26079;45.958;12.492;2023-05-02T02:03:38;5.85;;;5.45;;
40373;SDS011;26079;45.958;12.492;2023-05-02T02:06:05;5.30;;;5.00;;
40373;SDS011;26079;45.958;12.492;2023-05-02T02:08:32;5.68;;;5.28;;
40373;SDS011;26079;45.958;12.492;2023-05-02T02:10:59;4.97;;;4.68;;
40373;SDS011;26079;45.958;12.492;2023-05-02T02:16:08;3.90;;;3.63;;
40373;SDS011;26079;45.958;12.492;2023-05-02T02:18:36;5.93;;;4.55;;
40373;SDS011;26079;45.958;12.492;2023-05-02T02:21:06;5.03;;;4.70;;
40373;SDS011;26079;45.958;12.492;2023-05-02T02:23:35;5.18;;;4.88;;
40373;SDS011;26079;45.958;12.492;2023-05-02T02:26:03;6.25;;;5.78;;
40373;SDS011;26079;45.958;12.492;2023-05-02T02:28:30;7.18;;;6.78;;
40373;SDS011;26079;45.958;12.492;2023-05-02T02:30:58;6.50;;;6.15;;
40373;SDS011;26079;45.958;12.492;2023-05-02T02:33:24;7.80;;;7.13;;
40373;SDS011;26079;45.958;12.492;2023-05-02T02:35:56;5.03;;;4.72;;
40373;SDS011;26079;45.958;12.492;2023-05-02T02:41:26;4.25;;;3.95;;
40373;SDS011;26079;45.958;12.492;2023-05-02T02:44:13;4.50;;;4.25;;
40373;SDS011;26079;45.958;12.492;2023-05-02T02:47:05;4.78;;;4.05;;
40373;SDS011;26079;45.958;12.492;2023-05-02T02:49:59;3.42;;;3.22;;
40373;SDS011;26079;45.958;12.492;2023-05-02T02:52:47;4.65;;;3.78;;
40373;SDS011;26079;45.958;12.492;2023-05-02T03:00:42;5.45;;;5.15;;
40373;SDS011;26079;45.958;12.492;2023-05-02T03:03:10;6.00;;;5.68;;
40373;SDS011;26079;45.958;12.492;2023-05-02T03:05:38;8.10;;;5.50;;
40373;SDS011;26079;45.958;12.492;2023-05-02T03:08:04;5.90;;;5.47;;
40373;SDS011;26079;45.958;12.492;2023-05-02T03:10:30;5.90;;;5.50;;
40373;SDS011;26079;45.958;12.492;2023-05-02T03:12:57;2.47;;;2.28;;
40373;SDS011;26079;45.958;12.492;2023-05-02T03:18:23;7.15;;;6.72;;
40373;SDS011;26079;45.958;12.492;2023-05-02T03:20:49;8.63;;;8.15;;
40373;SDS011;26079;45.958;12.492;2023-05-02T03:23:15;8.80;;;8.32;;
40373;SDS011;26079;45.958;12.492;2023-05-02T03:25:41;9.25;;;8.55;;
40373;SDS011;26079;45.958;12.492;2023-05-02T03:28:06;9.45;;;8.85;;
40373;SDS011;26079;45.958;12.492;2023-05-02T03:30:32;10.15;;;9.55;;
40373;SDS011;26079;45.958;12.492;2023-05-02T03:32:58;10.05;;;9.45;;
40373;SDS011;26079;45.958;12.492;2023-05-02T03:35:24;9.13;;;8.57;;
40373;SDS011;26079;45.958;12.492;2023-05-02T03:37:50;9.32;;;8.80;;
40373;SDS011;26079;45.958;12.492;2023-05-02T03:40:15;8.20;;;7.68;;
40373;SDS011;26079;45.958;12.492;2023-05-02T03:42:45;10.32;;;9.75;;
40373;SDS011;26079;45.958;12.492;2023-05-02T03:45:11;10.70;;;10.10;;
40373;SDS011;26079;45.958;12.492;2023-05-02T03:47:36;12.30;;;11.60;;
40373;SDS011;26079;45.958;12.492;2023-05-02T03:50:02;11.00;;;10.35;;
40373;SDS011;26079;45.958;12.492;2023-05-02T03:52:28;10.43;;;9.77;;
40373;SDS011;26079;45.958;12.492;2023-05-02T03:54:54;11.07;;;10.30;;
40373;SDS011;26079;45.958;12.492;2023-05-02T03:57:19;9.23;;;8.70;;
40373;SDS011;26079;45.958;12.492;2023-05-02T03:59:45;10.73;;;10.13;;
40373;SDS011;26079;45.958;12.492;2023-05-02T04:02:11;9.50;;;8.93;;
40373;SDS011;26079;45.958;12.492;2023-05-02T04:04:37;11.38;;;10.68;;
40373;SDS011;26079;45.958;12.492;2023-05-02T04:07:04;11.93;;;11.13;;
40373;SDS011;26079;45.958;12.492;2023-05-02T04:09:31;11.90;;;11.20;;
40373;SDS011;26079;45.958;12.492;2023-05-02T04:11:57;14.82;;;13.75;;
40373;SDS011;26079;45.958;12.492;2023-05-02T04:14:23;14.90;;;13.93;;
40373;SDS011;26079;45.958;12.492;2023-05-02T04:16:49;14.82;;;13.70;;
40373;SDS011;26079;45.958;12.492;2023-05-02T04:19:16;15.48;;;14.63;;
40373;SDS011;26079;45.958;12.492;2023-05-02T04:21:43;14.68;;;13.88;;
40373;SDS011;26079;45.958;12.492;2023-05-02T04:24:09;16.15;;;15.25;;
40373;SDS011;26079;45.958;12.492;2023-05-02T04:26:35;15.80;;;14.73;;
40373;SDS011;26079;45.958;12.492;2023-05-02T04:29:01;14.82;;;13.95;;
40373;SDS011;26079;45.958;12.492;2023-05-02T04:31:26;15.13;;;14.02;;
40373;SDS011;26079;45.958;12.492;2023-05-02T04:33:52;14.77;;;13.90;;
40373;SDS011;26079;45.958;12.492;2023-05-02T04:36:18;14.25;;;13.35;;
40373;SDS011;26079;45.958;12.492;2023-05-02T04:38:44;13.90;;;13.02;;
40373;SDS011;26079;45.958;12.492;2023-05-02T04:41:09;13.82;;;13.02;;
40373;SDS011;26079;45.958;12.492;2023-05-02T04:43:35;13.20;;;12.50;;
40373;SDS011;26079;45.958;12.492;2023-05-02T04:46:01;15.93;;;14.82;;
40373;SDS011;26079;45.958;12.492;2023-05-02T04:48:27;16.05;;;14.57;;
40373;SDS011;26079;45.958;12.492;2023-05-02T04:50:52;16.77;;;15.82;;
40373;SDS011;26079;45.958;12.492;2023-05-02T04:53:20;15.52;;;14.43;;
40373;SDS011;26079;45.958;12.492;2023-05-02T04:55:46;15.02;;;14.13;;
40373;SDS011;26079;45.958;12.492;2023-05-02T04:58:11;13.55;;;12.57;;
40373;SDS011;26079;45.958;12.492;2023-05-02T05:00:37;16.52;;;15.27;;
40373;SDS011;26079;45.958;12.492;2023-05-02T05:03:03;16.17;;;15.15;;
40373;SDS011;26079;45.958;12.492;2023-05-02T05:05:30;14.23;;;13.32;;
40373;SDS011;26079;45.958;12.492;2023-05-02T05:07:56;17.77;;;16.60;;
40373;SDS011;26079;45.958;12.492;2023-05-02T05:10:22;28.40;;;26.20;;
40373;SDS011;26079;45.958;12.492;2023-05-02T05:12:48;25.25;;;23.50;;
40373;SDS011;26079;45.958;12.492;2023-05-02T05:15:14;18.40;;;17.30;;
40373;SDS011;26079;45.958;12.492;2023-05-02T05:17:39;17.80;;;16.60;;
40373;SDS011;26079;45.958;12.492;2023-05-02T05:20:06;17.35;;;16.35;;
40373;SDS011;26079;45.958;12.492;2023-05-02T05:22:38;18.73;;;17.67;;
40373;SDS011;26079;45.958;12.492;2023-05-02T05:25:05;19.80;;;18.55;;
40373;SDS011;26079;45.958;12.492;2023-05-02T05:27:35;18.55;;;17.33;;
40373;SDS011;26079;45.958;12.492;2023-05-02T05:30:02;17.98;;;16.90;;
40373;SDS011;26079;45.958;12.492;2023-05-02T05:32:28;15.65;;;14.70;;
40373;SDS011;26079;45.958;12.492;2023-05-02T05:34:54;17.02;;;15.90;;
40373;SDS011;26079;45.958;12.492;2023-05-02T05:37:20;15.93;;;15.02;;
40373;SDS011;26079;45.958;12.492;2023-05-02T05:39:46;16.00;;;14.98;;
40373;SDS011;26079;45.958;12.492;2023-05-02T05:42:12;16.80;;;15.82;;
40373;SDS011;26079;45.958;12.492;2023-05-02T05:44:38;15.82;;;14.60;;
40373;SDS011;26079;45.958;12.492;2023-05-02T05:47:03;17.95;;;16.42;;
40373;SDS011;26079;45.958;12.492;2023-05-02T05:49:29;13.95;;;13.25;;
40373;SDS011;26079;45.958;12.492;2023-05-02T05:51:55;17.25;;;15.65;;
40373;SDS011;26079;45.958;12.492;2023-05-02T05:54:21;14.90;;;14.05;;
40373;SDS011;26079;45.958;12.492;2023-05-02T05:56:47;16.35;;;15.35;;
40373;SDS011;26079;45.958;12.492;2023-05-02T05:59:12;17.55;;;16.25;;
40373;SDS011;26079;45.958;12.492;2023-05-02T06:01:39;14.90;;;13.82;;
40373;SDS011;26079;45.958;12.492;2023-05-02T06:04:05;14.55;;;13.52;;
40373;SDS011;26079;45.958;12.492;2023-05-02T06:06:31;15.07;;;14.07;;
40373;SDS011;26079;45.958;12.492;2023-05-02T06:08:57;16.13;;;15.10;;
40373;SDS011;26079;45.958;12.492;2023-05-02T06:11:26;15.88;;;14.95;;
40373;SDS011;26079;45.958;12.492;2023-05-02T06:13:52;14.85;;;14.05;;
40373;SDS011;26079;45.958;12.492;2023-05-02T06:16:18;14.65;;;13.85;;
40373;SDS011;26079;45.958;12.492;2023-05-02T06:18:44;15.05;;;14.15;;
40373;SDS011;26079;45.958;12.492;2023-05-02T06:21:13;15.02;;;14.07;;
40373;SDS011;26079;45.958;12.492;2023-05-02T06:23:42;15.52;;;14.55;;
40373;SDS011;26079;45.958;12.492;2023-05-02T06:26:08;15.82;;;14.85;;
40373;SDS011;26079;45.958;12.492;2023-05-02T06:28:34;17.70;;;16.60;;
40373;SDS011;26079;45.958;12.492;2023-05-02T06:31:03;16.60;;;15.55;;
40373;SDS011;26079;45.958;12.492;2023-05-02T06:33:31;16.88;;;15.68;;
40373;SDS011;26079;45.958;12.492;2023-05-02T06:35:58;18.02;;;16.80;;
40373;SDS011;26079;45.958;12.492;2023-05-02T06:38:23;15.95;;;14.95;;
40373;SDS011;26079;45.958;12.492;2023-05-02T06:40:49;16.08;;;14.90;;
40373;SDS011;26079;45.958;12.492;2023-05-02T06:43:16;15.25;;;13.90;;
40373;SDS011;26079;45.958;12.492;2023-05-02T06:45:46;15.65;;;14.45;;
40373;SDS011;26079;45.958;12.492;2023-05-02T06:48:14;14.45;;;13.20;;
40373;SDS011;26079;45.958;12.492;2023-05-02T06:50:43;16.27;;;15.15;;
40373;SDS011;26079;45.958;12.492;2023-05-02T06:53:12;16.98;;;15.75;;
40373;SDS011;26079;45.958;12.492;2023-05-02T06:55:40;18.40;;;17.23;;
40373;SDS011;26079;45.958;12.492;2023-05-02T06:58:10;15.55;;;14.55;;
40373;SDS011;26079;45.958;12.492;2023-05-02T07:00:36;14.43;;;13.55;;
40373;SDS011;26079;45.958;12.492;2023-05-02T07:03:02;13.88;;;13.05;;
40373;SDS011;26079;45.958;12.492;2023-05-02T07:05:28;16.40;;;14.98;;
40373;SDS011;26079;45.958;12.492;2023-05-02T07:07:57;18.45;;;17.08;;
40373;SDS011;26079;45.958;12.492;2023-05-02T07:10:23;17.20;;;14.32;;
40373;SDS011;26079;45.958;12.492;2023-05-02T07:12:52;17.52;;;16.20;;
40373;SDS011;26079;45.958;12.492;2023-05-02T07:15:18;17.35;;;15.80;;
40373;SDS011;26079;45.958;12.492;2023-05-02T07:17:43;24.42;;;16.88;;
40373;SDS011;26079;45.958;12.492;2023-05-02T07:20:11;18.10;;;16.25;;
40373;SDS011;26079;45.958;12.492;2023-05-02T07:22:37;19.02;;;17.67;;
40373;SDS011;26079;45.958;12.492;2023-05-02T07:25:03;21.75;;;20.02;;
40373;SDS011;26079;45.958;12.492;2023-05-02T07:27:29;17.33;;;16.23;;
40373;SDS011;26079;45.958;12.492;2023-05-02T07:29:57;16.15;;;15.13;;
40373;SDS011;26079;45.958;12.492;2023-05-02T07:32:26;17.42;;;16.40;;
40373;SDS011;26079;45.958;12.492;2023-05-02T07:34:52;16.58;;;15.55;;
40373;SDS011;26079;45.958;12.492;2023-05-02T07:37:23;16.83;;;15.77;;
40373;SDS011;26079;45.958;12.492;2023-05-02T07:39:49;17.10;;;15.77;;
40373;SDS011;26079;45.958;12.492;2023-05-02T07:42:14;17.85;;;16.80;;
40373;SDS011;26079;45.958;12.492;2023-05-02T07:44:45;19.38;;;18.17;;
40373;SDS011;26079;45.958;12.492;2023-05-02T07:47:17;16.02;;;14.90;;
40373;SDS011;26079;45.958;12.492;2023-05-02T07:49:42;16.35;;;15.40;;
40373;SDS011;26079;45.958;12.492;2023-05-02T07:52:08;18.08;;;16.88;;
40373;SDS011;26079;45.958;12.492;2023-05-02T07:54:34;14.85;;;13.98;;
40373;SDS011;26079;45.958;12.492;2023-05-02T07:56:59;16.45;;;15.40;;
40373;SDS011;26079;45.958;12.492;2023-05-02T07:59:28;14.68;;;13.80;;
40373;SDS011;26079;45.958;12.492;2023-05-02T08:01:54;12.82;;;12.07;;
40373;SDS011;26079;45.958;12.492;2023-05-02T08:04:20;13.45;;;12.63;;
40373;SDS011;26079;45.958;12.492;2023-05-02T08:06:45;13.15;;;12.40;;
40373;SDS011;26079;45.958;12.492;2023-05-02T08:09:11;12.38;;;11.55;;
40373;SDS011;26079;45.958;12.492;2023-05-02T08:11:37;12.80;;;12.00;;
40373;SDS011;26079;45.958;12.492;2023-05-02T08:14:02;13.00;;;11.88;;
40373;SDS011;26079;45.958;12.492;2023-05-02T08:16:28;12.73;;;11.98;;
40373;SDS011;26079;45.958;12.492;2023-05-02T08:18:53;14.50;;;13.50;;
40373;SDS011;26079;45.958;12.492;2023-05-02T08:21:19;12.65;;;11.95;;
40373;SDS011;26079;45.958;12.492;2023-05-02T08:23:45;13.25;;;12.60;;
40373;SDS011;26079;45.958;12.492;2023-05-02T08:26:10;13.25;;;11.82;;
40373;SDS011;26079;45.958;12.492;2023-05-02T08:28:36;13.73;;;12.98;;
40373;SDS011;26079;45.958;12.492;2023-05-02T08:31:01;14.13;;;13.07;;
40373;SDS011;26079;45.958;12.492;2023-05-02T08:33:27;14.15;;;13.40;;
40373;SDS011;26079;45.958;12.492;2023-05-02T08:35:53;12.98;;;12.30;;
40373;SDS011;26079;45.958;12.492;2023-05-02T08:38:19;13.93;;;13.18;;
40373;SDS011;26079;45.958;12.492;2023-05-02T08:40:44;12.82;;;12.02;;
40373;SDS011;26079;45.958;12.492;2023-05-02T08:43:12;13.82;;;13.05;;
40373;SDS011;26079;45.958;12.492;2023-05-02T08:45:41;13.30;;;12.50;;
40373;SDS011;26079;45.958;12.492;2023-05-02T08:48:09;15.80;;;14.98;;
40373;SDS011;26079;45.958;12.492;2023-05-02T08:50:44;19.40;;;18.13;;
40373;SDS011;26079;45.958;12.492;2023-05-02T08:53:12;15.68;;;14.50;;
40373;SDS011;26079;45.958;12.492;2023-05-02T08:55:39;15.80;;;14.65;;
40373;SDS011;26079;45.958;12.492;2023-05-02T08:58:06;14.80;;;14.02;;
40373;SDS011;26079;45.958;12.492;2023-05-02T09:00:35;14.45;;;13.65;;
40373;SDS011;26079;45.958;12.492;2023-05-02T09:05:38;17.63;;;16.67;;
40373;SDS011;26079;45.958;12.492;2023-05-02T09:08:05;20.67;;;19.55;;
40373;SDS011;26079;45.958;12.492;2023-05-02T09:10:33;16.27;;;15.35;;
40373;SDS011;26079;45.958;12.492;2023-05-02T09:18:28;19.58;;;18.55;;
40373;SDS011;26079;45.958;12.492;2023-05-02T09:20:56;20.17;;;19.02;;
40373;SDS011;26079;45.958;12.492;2023-05-02T09:23:32;20.25;;;18.83;;
40373;SDS011;26079;45.958;12.492;2023-05-02T09:26:24;17.63;;;16.60;;
40373;SDS011;26079;45.958;12.492;2023-05-02T09:28:55;21.08;;;19.75;;
40373;SDS011;26079;45.958;12.492;2023-05-02T09:31:22;17.27;;;16.33;;
40373;SDS011;26079;45.958;12.492;2023-05-02T09:34:08;16.35;;;15.45;;
40373;SDS011;26079;45.958;12.492;2023-05-02T09:36:39;16.90;;;15.93;;
40373;SDS011;26079;45.958;12.492;2023-05-02T09:39:15;14.35;;;13.55;;
40373;SDS011;26079;45.958;12.492;2023-05-02T09:41:44;14.05;;;12.85;;
40373;SDS011;26079;45.958;12.492;2023-05-02T09:44:12;5.20;;;4.80;;
40373;SDS011;26079;45.958;12.492;2023-05-02T09:46:42;8.93;;;8.25;;
40373;SDS011;26079;45.958;12.492;2023-05-02T09:49:15;5.13;;;4.82;;
40373;SDS011;26079;45.958;12.492;2023-05-02T09:51:45;13.02;;;12.40;;
40373;SDS011;26079;45.958;12.492;2023-05-02T09:54:12;11.68;;;11.02;;
40373;SDS011;26079;45.958;12.492;2023-05-02T09:56:51;13.95;;;13.23;;
40373;SDS011;26079;45.958;12.492;2023-05-02T09:59:21;15.43;;;14.50;;
40373;SDS011;26079;45.958;12.492;2023-05-02T10:01:54;13.52;;;12.82;;
40373;SDS011;26079;45.958;12.492;2023-05-02T10:04:21;12.10;;;11.50;;
40373;SDS011;26079;45.958;12.492;2023-05-02T10:06:46;12.43;;;11.80;;
40373;SDS011;26079;45.958;12.492;2023-05-02T10:09:15;12.88;;;12.20;;
40373;SDS011;26079;45.958;12.492;2023-05-02T10:11:41;10.45;;;9.95;;
40373;SDS011;26079;45.958;12.492;2023-05-02T10:14:08;19.15;;;18.15;;
40373;SDS011;26079;45.958;12.492;2023-05-02T10:16:35;15.32;;;14.05;;
40373;SDS011;26079;45.958;12.492;2023-05-02T10:19:10;4.70;;;4.43;;
40373;SDS011;26079;45.958;12.492;2023-05-02T10:21:42;3.28;;;3.13;;
40373;SDS011;26079;45.958;12.492;2023-05-02T10:24:08;12.65;;;11.88;;
40373;SDS011;26079;45.958;12.492;2023-05-02T10:26:35;8.57;;;8.18;;
40373;SDS011;26079;45.958;12.492;2023-05-02T10:29:01;18.15;;;17.13;;
40373;SDS011;26079;45.958;12.492;2023-05-02T10:31:27;14.32;;;13.35;;
40373;SDS011;26079;45.958;12.492;2023-05-02T10:33:59;22.05;;;20.98;;
40373;SDS011;26079;45.958;12.492;2023-05-02T10:36:27;19.58;;;18.63;;
40373;SDS011;26079;45.958;12.492;2023-05-02T10:38:53;15.13;;;14.40;;
40373;SDS011;26079;45.958;12.492;2023-05-02T10:41:23;18.48;;;17.52;;
40373;SDS011;26079;45.958;12.492;2023-05-02T10:43:51;14.43;;;13.70;;
40373;SDS011;26079;45.958;12.492;2023-05-02T10:51:34;12.27;;;11.60;;
40373;SDS011;26079;45.958;12.492;2023-05-02T10:54:17;20.60;;;19.50;;
40373;SDS011;26079;45.958;12.492;2023-05-02T10:59:36;16.40;;;15.57;;
40373;SDS011;26079;45.958;12.492;2023-05-02T11:05:07;12.88;;;12.18;;
40373;SDS011;26079;45.958;12.492;2023-05-02T11:07:33;15.98;;;15.20;;
40373;SDS011;26079;45.958;12.492;2023-05-02T11:12:45;8.30;;;7.80;;
40373;SDS011;26079;45.958;12.492;2023-05-02T11:18:16;14.10;;;13.40;;
40373;SDS011;26079;45.958;12.492;2023-05-02T11:20:42;13.50;;;12.65;;
40373;SDS011;26079;45.958;12.492;2023-05-02T11:25:49;17.73;;;16.83;;
40373;SDS011;26079;45.958;12.492;2023-05-02T11:31:03;10.35;;;9.82;;
40373;SDS011;26079;45.958;12.492;2023-05-02T11:33:30;2.55;;;2.45;;
40373;SDS011;26079;45.958;12.492;2023-05-02T11:35:56;2.85;;;2.72;;
40373;SDS011;26079;45.958;12.492;2023-05-02T11:38:23;1.65;;;1.25;;
40373;SDS011;26079;45.958;12.492;2023-05-02T11:40:59;1.95;;;1.85;;
40373;SDS011;26079;45.958;12.492;2023-05-02T11:43:27;2.83;;;1.30;;
40373;SDS011;26079;45.958;12.492;2023-05-02T11:45:53;1.38;;;1.27;;
40373;SDS011;26079;45.958;12.492;2023-05-02T11:48:20;1.60;;;1.50;;
40373;SDS011;26079;45.958;12.492;2023-05-02T11:53:18;1.08;;;1.05;;
40373;SDS011;26079;45.958;12.492;2023-05-02T11:55:51;1.00;;;1.00;;
40373;SDS011;26079;45.958;12.492;2023-05-02T11:58:20;1.85;;;1.75;;
40373;SDS011;26079;45.958;12.492;2023-05-02T12:00:47;1.20;;;1.10;;
40373;SDS011;26079;45.958;12.492;2023-05-02T12:03:21;3.42;;;1.40;;
40373;SDS011;26079;45.958;12.492;2023-05-02T12:05:48;1.50;;;1.40;;
40373;SDS011;26079;45.958;12.492;2023-05-02T12:08:17;0.90;;;0.90;;
40373;SDS011;26079;45.958;12.492;2023-05-02T12:10:44;0.57;;;0.57;;
40373;SDS011;26079;45.958;12.492;2023-05-02T12:13:10;0.90;;;0.90;;
40373;SDS011;26079;45.958;12.492;2023-05-02T12:15:36;1.08;;;0.80;;
40373;SDS011;26079;45.958;12.492;2023-05-02T12:18:01;0.82;;;0.82;;
40373;SDS011;26079;45.958;12.492;2023-05-02T12:20:28;0.77;;;0.77;;
40373;SDS011;26079;45.958;12.492;2023-05-02T12:22:54;0.90;;;0.90;;
40373;SDS011;26079;45.958;12.492;2023-05-02T12:25:21;0.60;;;0.60;;
40373;SDS011;26079;45.958;12.492;2023-05-02T12:27:59;0.95;;;0.95;;
40373;SDS011;26079;45.958;12.492;2023-05-02T12:30:29;6.10;;;4.65;;
40373;SDS011;26079;45.958;12.492;2023-05-02T12:32:57;6.00;;;5.72;;
40373;SDS011;26079;45.958;12.492;2023-05-02T12:35:25;1.50;;;1.40;;
40373;SDS011;26079;45.958;12.492;2023-05-02T12:37:51;1.25;;;1.25;;
40373;SDS011;26079;45.958;12.492;2023-05-02T12:40:20;1.40;;;1.30;;
40373;SDS011;26079;45.958;12.492;2023-05-02T12:42:59;5.95;;;5.68;;
40373;SDS011;26079;45.958;12.492;2023-05-02T12:45:28;8.23;;;7.82;;
40373;SDS011;26079;45.958;12.492;2023-05-02T12:47:58;10.50;;;9.98;;
40373;SDS011;26079;45.958;12.492;2023-05-02T12:50:39;13.30;;;12.50;;
40373;SDS011;26079;45.958;12.492;2023-05-02T12:53:07;11.27;;;10.68;;
40373;SDS011;26079;45.958;12.492;2023-05-02T12:55:33;12.85;;;12.25;;
40373;SDS011;26079;45.958;12.492;2023-05-02T12:58:03;15.43;;;14.57;;
40373;SDS011;26079;45.958;12.492;2023-05-02T13:00:30;20.73;;;19.17;;
40373;SDS011;26079;45.958;12.492;2023-05-02T13:02:56;16.60;;;15.77;;
40373;SDS011;26079;45.958;12.492;2023-05-02T13:05:22;12.18;;;11.27;;
40373;SDS011;26079;45.958;12.492;2023-05-02T13:07:48;14.68;;;13.68;;
40373;SDS011;26079;45.958;12.492;2023-05-02T13:10:14;15.02;;;13.98;;
40373;SDS011;26079;45.958;12.492;2023-05-02T13:12:42;13.95;;;13.20;;
40373;SDS011;26079;45.958;12.492;2023-05-02T13:15:12;19.25;;;18.27;;
40373;SDS011;26079;45.958;12.492;2023-05-02T13:17:38;23.10;;;21.73;;
40373;SDS011;26079;45.958;12.492;2023-05-02T13:20:04;22.42;;;21.27;;
40373;SDS011;26079;45.958;12.492;2023-05-02T13:22:31;23.50;;;22.27;;
40373;SDS011;26079;45.958;12.492;2023-05-02T13:24:56;19.92;;;18.92;;
40373;SDS011;26079;45.958;12.492;2023-05-02T13:27:22;17.67;;;16.77;;
40373;SDS011;26079;45.958;12.492;2023-05-02T13:29:48;19.55;;;18.42;;
40373;SDS011;26079;45.958;12.492;2023-05-02T13:32:14;20.05;;;18.90;;
40373;SDS011;26079;45.958;12.492;2023-05-02T13:34:40;23.73;;;22.45;;
40373;SDS011;26079;45.958;12.492;2023-05-02T13:37:06;23.02;;;21.60;;
40373;SDS011;26079;45.958;12.492;2023-05-02T13:39:32;38.22;;;34.13;;
40373;SDS011;26079;45.958;12.492;2023-05-02T13:41:58;37.40;;;33.13;;
40373;SDS011;26079;45.958;12.492;2023-05-02T13:44:23;31.60;;;28.75;;
40373;SDS011;26079;45.958;12.492;2023-05-02T13:46:49;37.67;;;32.03;;
40373;SDS011;26079;45.958;12.492;2023-05-02T13:49:15;28.27;;;26.55;;
40373;SDS011;26079;45.958;12.492;2023-05-02T13:51:40;28.83;;;26.75;;
40373;SDS011;26079;45.958;12.492;2023-05-02T13:54:06;26.77;;;25.20;;
40373;SDS011;26079;45.958;12.492;2023-05-02T13:56:32;24.20;;;22.95;;
40373;SDS011;26079;45.958;12.492;2023-05-02T13:58:57;26.52;;;24.73;;
40373;SDS011;26079;45.958;12.492;2023-05-02T14:01:23;24.50;;;23.17;;
40373;SDS011;26079;45.958;12.492;2023-05-02T14:03:50;24.98;;;23.67;;
40373;SDS011;26079;45.958;12.492;2023-05-02T14:06:16;25.30;;;23.95;;
40373;SDS011;26079;45.958;12.492;2023-05-02T14:08:42;24.63;;;23.13;;
40373;SDS011;26079;45.958;12.492;2023-05-02T14:11:08;27.95;;;26.25;;
40373;SDS011;26079;45.958;12.492;2023-05-02T14:13:35;24.38;;;23.13;;
40373;SDS011;26079;45.958;12.492;2023-05-02T14:16:01;26.95;;;25.52;;
40373;SDS011;26079;45.958;12.492;2023-05-02T14:18:27;25.92;;;24.55;;
40373;SDS011;26079;45.958;12.492;2023-05-02T14:20:52;20.35;;;19.35;;
40373;SDS011;26079;45.958;12.492;2023-05-02T14:23:19;21.10;;;20.00;;
40373;SDS011;26079;45.958;12.492;2023-05-02T14:25:45;19.58;;;18.17;;
40373;SDS011;26079;45.958;12.492;2023-05-02T14:28:10;17.67;;;16.75;;
40373;SDS011;26079;45.958;12.492;2023-05-02T14:30:39;20.05;;;19.00;;
40373;SDS011;26079;45.958;12.492;2023-05-02T14:33:04;20.92;;;19.70;;
40373;SDS011;26079;45.958;12.492;2023-05-02T14:35:33;21.15;;;20.05;;
40373;SDS011;26079;45.958;12.492;2023-05-02T14:37:58;17.30;;;16.40;;
40373;SDS011;26079;45.958;12.492;2023-05-02T14:40:27;19.27;;;18.13;;
40373;SDS011;26079;45.958;12.492;2023-05-02T14:42:53;19.23;;;18.27;;
40373;SDS011;26079;45.958;12.492;2023-05-02T14:45:19;21.38;;;20.25;;
40373;SDS011;26079;45.958;12.492;2023-05-02T14:47:45;23.00;;;21.65;;
40373;SDS011;26079;45.958;12.492;2023-05-02T14:50:11;22.17;;;21.02;;
40373;SDS011;26079;45.958;12.492;2023-05-02T14:52:40;16.40;;;15.55;;
40373;SDS011;26079;45.958;12.492;2023-05-02T14:55:05;20.20;;;18.90;;
40373;SDS011;26079;45.958;12.492;2023-05-02T14:57:31;19.48;;;18.40;;
40373;SDS011;26079;45.958;12.492;2023-05-02T14:59:57;17.92;;;17.00;;
40373;SDS011;26079;45.958;12.492;2023-05-02T15:02:23;22.33;;;21.15;;
40373;SDS011;26079;45.958;12.492;2023-05-02T15:04:48;24.42;;;23.05;;
40373;SDS011;26079;45.958;12.492;2023-05-02T15:07:14;26.83;;;25.13;;
40373;SDS011;26079;45.958;12.492;2023-05-02T15:09:40;21.35;;;20.13;;
40373;SDS011;26079;45.958;12.492;2023-05-02T15:12:05;17.85;;;16.77;;
40373;SDS011;26079;45.958;12.492;2023-05-02T15:14:31;17.25;;;16.33;;
40373;SDS011;26079;45.958;12.492;2023-05-02T15:16:57;20.95;;;19.17;;